Time;durP1;ratioP1;P1;durP2;ratioP2;P2;SDS_P1;SDS_P2;PMS_P1;PMS_P2;Temp;Humidity;BMP_temperature;BMP_pressure;BME280_temperature;BME280_humidity;BME280_pressure;Samples;Min_cycle;Max_cycle;Signal;HPM_P1;HPM_P2
2022/04/26 03:36:59;;;;;;;4.13;2.00;;;;;;;9.88;60.74;95119.94;5064804;28;20613;-70
2022/04/26 03:39:25;;;;;;;4.15;1.88;;;;;;;9.85;61.76;95120.28;5064739;28;20047;-71
2022/04/26 03:41:50;;;;;;;5.47;1.90;;;;;;;9.80;61.58;95125.34;5063880;28;20427;-71
2022/04/26 03:44:16;;;;;;;4.25;1.75;;;;;;;9.83;61.53;95123.16;5065465;28;20530;-71
2022/04/26 03:46:41;;;;;;;7.55;2.13;;;;;;;9.93;60.70;95122.06;5063691;28;20025;-72
2022/04/26 03:49:07;;;;;;;6.55;2.10;;;;;;;9.96;60.03;95121.72;5065225;28;20024;-71
2022/04/26 03:51:33;;;;;;;4.07;1.77;;;;;;;9.94;60.51;95124.56;5063796;28;20032;-71
2022/04/26 03:53:58;;;;;;;6.53;1.85;;;;;;;9.99;60.43;95126.69;5064303;28;20044;-71
2022/04/26 03:56:24;;;;;;;5.38;1.70;;;;;;;10.10;60.04;95128.09;5064614;28;20067;-69
2022/04/26 03:58:49;;;;;;;7.30;1.98;;;;;;;10.15;59.63;95136.44;5063812;28;20036;-71
2022/04/26 04:01:15;;;;;;;4.85;1.90;;;;;;;10.18;59.35;95138.75;5065090;28;20032;-72
2022/04/26 04:03:40;;;;;;;8.88;2.00;;;;;;;10.27;59.00;95139.50;5063730;28;20032;-74
2022/04/26 04:06:06;;;;;;;6.13;2.47;;;;;;;10.33;59.01;95135.28;5065162;28;20408;-73
2022/04/26 04:08:31;;;;;;;8.80;2.42;;;;;;;10.37;58.86;95139.22;5045783;28;20122;-72
2022/04/26 04:10:57;;;;;;;6.55;2.20;;;;;;;10.36;59.58;95138.44;5064766;28;20024;-72
2022/04/26 04:13:22;;;;;;;5.30;2.40;;;;;;;10.34;59.72;95144.97;5063466;28;20063;-72
2022/04/26 04:15:48;;;;;;;7.93;2.53;;;;;;;10.36;59.27;95150.97;5063936;28;20025;-73
2022/04/26 04:20:57;;;;;;;9.55;2.20;;;;;;;10.50;59.83;95157.41;5064277;28;20583;-75
2022/04/26 04:23:23;;;;;;;12.73;2.38;;;;;;;10.55;59.06;95163.06;5064927;28;20036;-72
2022/04/26 04:25:48;;;;;;;8.05;2.20;;;;;;;10.67;58.79;95160.78;5063678;28;20020;-72
2022/04/26 04:28:15;;;;;;;8.63;1.95;;;;;;;10.78;58.63;95155.94;5046820;28;20044;-71
2022/04/26 04:30:41;;;;;;;4.85;1.58;;;;;;;10.98;57.62;95159.72;5063947;28;20095;-73
2022/04/26 04:33:06;;;;;;;5.78;1.70;;;;;;;11.16;56.81;95166.56;5064045;28;20059;-72
2022/04/26 04:35:31;;;;;;;7.28;1.95;;;;;;;11.38;56.60;95172.00;5064525;28;20060;-70
2022/04/26 04:37:57;;;;;;;10.68;2.15;;;;;;;11.61;55.80;95162.94;5066784;28;20021;-70
2022/04/26 04:40:22;;;;;;;5.88;2.10;;;;;;;11.80;55.91;95166.03;5068391;28;20036;-70
2022/04/26 04:42:48;;;;;;;13.82;2.35;;;;;;;12.06;55.02;95161.94;5067183;28;20047;-70
2022/04/26 04:45:13;;;;;;;13.07;2.00;;;;;;;12.21;54.43;95165.41;5068594;28;20017;-70
2022/04/26 04:47:38;;;;;;;8.35;2.45;;;;;;;12.38;53.97;95165.09;5067323;28;20043;-70
2022/04/26 04:50:04;;;;;;;5.82;2.22;;;;;;;12.51;53.89;95169.75;5067807;28;20434;-71
2022/04/26 04:52:30;;;;;;;11.23;4.28;;;;;;;12.78;52.88;95169.97;5067723;28;20514;-70
2022/04/26 04:54:55;;;;;;;6.93;2.38;;;;;;;12.96;52.91;95165.94;5066766;28;20506;-72
2022/04/26 04:57:21;;;;;;;7.97;2.60;;;;;;;13.19;52.25;95171.00;5068280;28;20043;-71
2022/04/26 04:59:47;;;;;;;6.70;2.40;;;;;;;13.40;52.24;95169.22;5066337;28;20509;-71
2022/04/26 05:02:12;;;;;;;7.10;2.53;;;;;;;13.63;51.82;95170.78;5068101;28;20024;-71
2022/04/26 05:04:39;;;;;;;8.43;2.58;;;;;;;13.82;51.36;95168.34;5066952;28;20110;-71
2022/04/26 05:07:06;;;;;;;8.98;2.88;;;;;;;14.02;50.64;95167.56;5067659;28;20028;-72
2022/04/26 05:09:31;;;;;;;11.05;2.60;;;;;;;14.25;51.40;95177.13;5067158;28;20099;-70
2022/04/26 05:11:57;;;;;;;11.25;2.53;;;;;;;14.46;51.41;95178.78;5067055;28;20031;-72
2022/04/26 05:14:22;;;;;;;11.48;3.60;;;;;;;14.71;50.25;95175.44;5067677;28;20028;-72
2022/04/26 05:16:48;;;;;;;9.57;2.65;;;;;;;14.87;49.72;95185.00;5066386;28;20499;-74
2022/04/26 05:19:13;;;;;;;8.63;3.10;;;;;;;15.15;49.37;95183.09;5067646;28;20423;-72
2022/04/26 05:21:38;;;;;;;10.25;3.13;;;;;;;15.34;49.62;95184.06;5048615;28;20024;-71
2022/04/26 05:26:48;;;;;;;5.65;2.22;;;;;;;15.83;48.29;95191.72;5067073;28;20060;-71
2022/04/26 05:29:14;;;;;;;10.15;2.30;;;;;;;16.05;47.43;95184.16;5066578;28;20422;-71
2022/04/26 05:31:39;;;;;;;8.25;2.13;;;;;;;16.32;45.53;95193.97;5067262;28;20479;-71
2022/04/26 05:34:04;;;;;;;8.18;1.70;;;;;;;16.49;44.44;95193.44;5066096;28;20025;-69
2022/04/26 05:36:30;;;;;;;13.50;2.00;;;;;;;16.61;45.55;95191.66;5067271;28;20388;-71
2022/04/26 05:38:56;;;;;;;4.25;1.80;;;;;;;16.81;44.88;95186.06;5065575;28;20414;-72
2022/04/26 05:41:21;;;;;;;8.68;2.15;;;;;;;16.95;43.76;95191.38;5067282;28;20063;-71
2022/04/26 05:43:47;;;;;;;4.88;1.60;;;;;;;17.05;43.92;95190.84;5066156;28;20028;-73
2022/04/26 05:46:12;;;;;;;8.30;2.10;;;;;;;17.11;43.70;95194.56;5066437;28;20031;-72
2022/04/26 05:48:40;;;;;;;6.97;1.65;;;;;;;17.29;43.51;95193.75;5048263;28;20040;-72
2022/04/26 05:51:05;;;;;;;7.90;1.83;;;;;;;17.37;43.31;95193.47;5066218;28;20023;-71
2022/04/26 05:53:31;;;;;;;6.75;2.05;;;;;;;17.48;44.37;95191.03;5066569;28;20017;-70
2022/04/26 05:55:56;;;;;;;15.40;2.10;;;;;;;17.60;43.87;95188.41;5065510;28;20032;-70
2022/04/26 05:58:22;;;;;;;7.22;1.75;;;;;;;17.70;43.67;95188.69;5066581;28;20044;-70
2022/04/26 06:00:47;;;;;;;5.78;1.30;;;;;;;17.84;43.72;95185.81;5065835;28;20414;-70
2022/04/26 06:03:13;;;;;;;7.07;1.40;;;;;;;17.95;43.71;95186.91;5066652;28;20471;-71
2022/04/26 06:05:38;;;;;;;5.00;1.55;;;;;;;18.14;42.69;95180.41;5065975;28;20414;-72
2022/04/26 06:08:05;;;;;;;4.30;1.67;;;;;;;18.27;42.90;95179.38;5065699;28;20040;-75
2022/04/26 06:10:31;;;;;;;5.63;1.35;;;;;;;18.43;41.54;95178.94;5066320;28;20503;-72
2022/04/26 06:12:56;;;;;;;14.43;1.60;;;;;;;18.60;40.92;95177.22;5065584;28;20027;-75
2022/04/26 06:15:21;;;;;;;5.82;1.08;;;;;;;18.69;40.75;95174.13;5066208;28;20021;-72
2022/04/26 06:17:47;;;;;;;7.90;1.25;;;;;;;18.77;40.46;95166.47;5065157;28;20487;-72
2022/04/26 06:20:12;;;;;;;5.45;1.40;;;;;;;18.93;41.13;95169.53;5065920;28;20554;-71
2022/04/26 06:22:38;;;;;;;5.97;1.35;;;;;;;19.01;40.79;95163.75;5065423;28;20475;-71
2022/04/26 06:25:04;;;;;;;4.25;1.40;;;;;;;19.18;40.32;95165.78;5066010;28;20437;-72
2022/04/26 06:27:29;;;;;;;7.35;1.52;;;;;;;19.30;39.27;95163.03;5065394;28;20032;-72
2022/04/26 06:29:55;;;;;;;6.72;1.50;;;;;;;19.37;39.22;95160.19;5065379;28;20039;-70
2022/04/26 06:32:20;;;;;;;5.10;1.23;;;;;;;19.45;39.37;95156.25;5065728;28;20392;-71
2022/04/26 06:34:46;;;;;;;6.85;1.58;;;;;;;19.47;39.36;95163.13;5065079;28;20035;-71
2022/04/26 06:37:13;;;;;;;3.92;1.27;;;;;;;19.61;40.07;95158.22;5065734;28;20029;-71
2022/04/26 06:39:39;;;;;;;8.32;1.40;;;;;;;19.69;40.21;95159.75;5064813;28;20522;-71
2022/04/26 06:42:04;;;;;;;3.67;1.50;;;;;;;19.80;39.19;95154.50;5065693;28;20032;-71
2022/04/26 06:44:31;;;;;;;4.53;1.27;;;;;;;19.91;39.48;95160.97;5064880;28;20067;-71
2022/04/26 06:46:56;;;;;;;4.72;1.40;;;;;;;19.99;39.11;95163.31;5065257;28;20426;-70
2022/04/26 06:49:22;;;;;;;4.03;1.05;;;;;;;20.03;40.75;95158.22;5065305;28;20505;-71
2022/04/26 06:51:47;;;;;;;4.88;1.20;;;;;;;20.01;39.33;95152.97;5064618;28;20024;-70
2022/04/26 06:54:12;;;;;;;4.60;1.00;;;;;;;20.01;39.85;95159.25;5065652;28;20024;-71
2022/04/26 06:56:40;;;;;;;4.32;0.80;;;;;;;20.11;39.18;95144.22;5063722;28;20051;-71
2022/04/26 06:59:05;;;;;;;8.73;1.33;;;;;;;20.24;38.27;95143.91;5065137;28;20032;-71
2022/04/26 07:01:31;;;;;;;3.80;1.10;;;;;;;20.33;37.07;95143.50;5064538;28;20021;-71
2022/04/26 07:03:56;;;;;;;13.75;1.27;;;;;;;20.43;36.92;95145.56;5047409;28;20035;-70
2022/04/26 07:06:22;;;;;;;5.80;1.45;;;;;;;20.49;36.50;95145.41;5064643;28;20036;-70
2022/04/26 07:08:48;;;;;;;6.90;0.90;;;;;;;20.60;37.97;95143.66;5064784;28;20025;-71
2022/04/26 07:11:15;;;;;;;3.40;0.95;;;;;;;20.75;35.49;95147.69;5065279;28;20032;-72
2022/04/26 07:13:41;;;;;;;6.20;1.10;;;;;;;20.79;35.29;95137.13;5064216;28;20116;-71
2022/04/26 07:16:06;;;;;;;7.35;1.10;;;;;;;20.84;34.55;95135.34;5065376;28;20048;-71
2022/04/26 07:18:32;;;;;;;8.10;1.30;;;;;;;20.90;33.69;95132.66;5063837;28;20039;-71
2022/04/26 07:20:57;;;;;;;6.57;1.10;;;;;;;20.91;33.95;95146.03;5065528;28;20027;-72
2022/04/26 07:23:23;;;;;;;10.07;1.20;;;;;;;20.86;35.85;95148.72;5064474;28;20033;-72
2022/04/26 07:25:48;;;;;;;9.88;1.17;;;;;;;20.94;35.74;95140.09;5064903;28;20043;-71
2022/04/26 07:28:14;;;;;;;4.47;0.70;;;;;;;21.10;33.34;95137.63;5047348;28;20024;-70
2022/04/26 07:30:39;;;;;;;5.70;0.95;;;;;;;21.04;33.83;95141.34;5064292;28;20254;-72
2022/04/26 07:35:49;;;;;;;4.97;1.83;;;;;;;21.10;34.04;95140.34;5064178;28;20032;-72
2022/04/26 07:38:15;;;;;;;6.35;0.80;;;;;;;21.14;35.64;95141.47;5065142;28;20036;-71
2022/04/26 07:40:41;;;;;;;5.20;1.00;;;;;;;21.16;34.32;95142.06;5063793;28;20052;-70
2022/04/26 07:43:06;;;;;;;6.03;1.38;;;;;;;21.25;33.21;95139.72;5046757;28;20113;-70
2022/04/26 07:45:32;;;;;;;5.30;0.95;;;;;;;21.28;33.30;95138.41;5064484;28;20472;-73
2022/04/26 07:47:58;;;;;;;7.75;1.05;;;;;;;21.37;33.69;95147.78;5063941;28;20108;-71
2022/04/26 07:50:24;;;;;;;5.85;1.33;;;;;;;21.52;33.84;95135.44;5065119;28;20028;-71
2022/04/26 07:52:49;;;;;;;5.47;1.40;;;;;;;21.59;32.98;95134.16;5063716;28;20033;-71
2022/04/26 07:55:15;;;;;;;4.60;1.30;;;;;;;21.65;32.66;95142.41;5065003;28;20441;-71
2022/04/26 07:57:40;;;;;;;6.07;1.10;;;;;;;21.64;33.08;95136.09;5063888;28;20024;-71
2022/04/26 08:00:06;;;;;;;4.95;1.50;;;;;;;21.65;32.95;95137.75;5064961;28;20111;-71
2022/04/26 08:02:33;;;;;;;7.93;1.20;;;;;;;21.43;35.08;95137.75;5064475;28;20407;-70
2022/04/26 08:05:01;;;;;;;6.65;1.00;;;;;;;21.43;34.02;95135.03;5064405;28;20219;-71
2022/04/26 08:07:29;;;;;;;2.90;1.00;;;;;;;21.48;33.43;95138.66;5064843;28;20025;-71
2022/04/26 08:09:55;;;;;;;5.47;1.48;;;;;;;21.53;33.66;95137.06;5063781;28;20526;-74
2022/04/26 08:12:21;;;;;;;5.30;0.95;;;;;;;21.58;32.96;95134.41;5069255;28;20013;-72
2022/04/26 08:14:46;;;;;;;4.45;1.20;;;;;;;21.66;34.56;95139.41;5067197;28;20040;-73
2022/04/26 08:17:14;;;;;;;3.58;1.08;;;;;;;21.82;33.36;95131.44;5069040;28;20021;-71
2022/04/26 08:19:39;;;;;;;4.20;0.80;;;;;;;21.88;32.02;95137.78;5067642;28;20036;-72
2022/04/26 08:22:05;;;;;;;7.28;0.85;;;;;;;21.89;32.18;95131.22;5068107;28;20441;-71
2022/04/26 08:27:25;;;;;;;6.68;1.10;;;;;;;21.84;32.52;95134.72;5067471;28;20533;-71
2022/04/26 08:29:53;;;;;;;4.53;0.90;;;;;;;21.70;33.09;95129.63;5068763;28;20066;-71
2022/04/26 08:32:18;;;;;;;9.20;0.98;;;;;;;21.72;33.07;95132.94;5067468;28;20028;-71
2022/04/26 08:34:44;;;;;;;2.13;0.88;;;;;;;21.74;33.48;95129.94;5067987;28;20051;-71
2022/04/26 08:37:09;;;;;;;4.93;0.90;;;;;;;21.82;33.90;95137.72;5067526;28;20040;-70
2022/04/26 08:39:35;;;;;;;3.75;1.10;;;;;;;21.65;33.96;95129.56;5067627;28;20039;-72
2022/04/26 08:42:01;;;;;;;3.88;0.90;;;;;;;21.76;34.10;95126.97;5067388;28;20049;-70
2022/04/26 08:44:27;;;;;;;5.60;1.25;;;;;;;21.84;34.09;95127.34;5067078;28;20486;-73
2022/04/26 08:52:21;;;;;;;4.85;1.10;;;;;;;22.06;33.86;95131.97;5067586;28;20040;-73
2022/04/26 08:54:49;;;;;;;7.57;1.90;;;;;;;22.13;33.48;95126.28;5067545;28;20025;-70
2022/04/26 08:57:14;;;;;;;5.15;1.35;;;;;;;22.00;35.11;95126.69;5066774;28;20021;-71
2022/04/26 08:59:49;;;;;;;8.45;1.50;;;;;;;22.16;33.98;95130.41;5067617;28;20039;-72
2022/04/26 09:02:21;;;;;;;8.32;2.13;;;;;;;21.89;33.87;95125.78;5066541;28;20032;-72
2022/04/26 09:04:51;;;;;;;7.90;1.90;;;;;;;21.62;36.07;95127.34;5068046;28;20035;-72
2022/04/26 09:07:30;;;;;;;11.85;2.30;;;;;;;21.57;36.81;95132.78;5067253;28;20036;-71
2022/04/26 09:10:02;;;;;;;10.55;3.00;;;;;;;21.57;36.37;95135.50;5066710;28;20017;-72
2022/04/26 09:12:28;;;;;;;;;;;;;;;21.55;36.43;95121.28;5068242;28;20145;-71
2022/04/26 09:14:54;;;;;;;12.57;2.00;;;;;;;21.65;36.61;95112.38;5066207;28;19926;-71
2022/04/26 09:17:19;;;;;;;11.55;2.03;;;;;;;21.76;36.71;95118.78;5067872;28;20024;-72
2022/04/26 09:19:53;;;;;;;7.35;1.80;;;;;;;21.86;36.20;95116.19;5066613;28;20037;-72
2022/04/26 09:22:20;;;;;;;9.93;2.20;;;;;;;21.93;34.98;95107.78;5066938;28;20020;-72
2022/04/26 09:25:03;;;;;;;5.93;1.70;;;;;;;21.85;37.57;95118.09;5067055;28;20035;-73
2022/04/26 09:27:29;;;;;;;11.10;1.80;;;;;;;21.90;37.10;95109.13;5066511;28;20024;-72
2022/04/26 09:29:54;;;;;;;7.80;1.77;;;;;;;22.03;35.97;95110.63;5067336;28;20052;-72
2022/04/26 09:32:20;;;;;;;8.52;1.77;;;;;;;22.10;35.64;95111.22;5066177;28;20541;-74
2022/04/26 09:34:46;;;;;;;11.45;2.15;;;;;;;22.08;36.00;95110.69;5067566;28;20017;-72
2022/04/26 09:37:12;;;;;;;13.30;1.85;;;;;;;22.22;35.35;95107.53;5066444;28;20463;-71
2022/04/26 09:39:39;;;;;;;10.75;1.90;;;;;;;22.18;35.16;95098.22;5067156;28;20060;-72
2022/04/26 09:42:05;;;;;;;8.15;1.83;;;;;;;22.16;37.42;95097.63;5048359;28;20054;-72
2022/04/26 09:44:31;;;;;;;7.50;2.08;;;;;;;22.21;36.35;95103.16;5066275;28;20037;-72
2022/04/26 09:46:56;;;;;;;11.35;2.80;;;;;;;22.28;35.17;95103.75;5067403;28;20024;-73
2022/04/26 09:49:23;;;;;;;8.77;2.42;;;;;;;22.21;35.31;95093.06;5065939;28;20542;-71
2022/04/26 09:51:52;;;;;;;10.57;2.60;;;;;;;22.26;37.69;95086.81;5067137;28;20431;-71
2022/04/26 09:54:18;;;;;;;11.13;2.05;;;;;;;22.40;36.96;95094.56;5065753;28;20025;-74
2022/04/26 09:56:46;;;;;;;7.38;2.45;;;;;;;22.40;36.72;95089.09;5067497;28;20024;-75
2022/04/26 09:59:27;;;;;;;5.47;1.88;;;;;;;22.43;35.29;95088.56;5065852;28;20135;-72
2022/04/26 10:01:55;;;;;;;9.52;2.92;;;;;;;22.38;35.25;95080.31;5050231;28;20078;-71
2022/04/26 10:04:21;;;;;;;15.95;2.40;;;;;;;22.37;35.57;95084.97;5066327;28;20510;-70
2022/04/26 10:06:49;;;;;;;11.90;2.33;;;;;;;22.29;35.28;95086.28;5047928;28;20090;-72
2022/04/26 10:09:14;;;;;;;8.95;1.90;;;;;;;22.34;35.91;95083.56;5066624;28;20032;-72
2022/04/26 10:11:40;;;;;;;10.57;2.60;;;;;;;22.25;37.19;95079.69;5031088;28;20403;-72
2022/04/26 10:14:06;;;;;;;5.75;2.00;;;;;;;22.26;37.51;95081.34;5066575;28;20028;-71
2022/04/26 10:16:32;;;;;;;8.70;2.53;;;;;;;22.28;36.13;95079.16;5065553;28;20029;-72
2022/04/26 10:19:04;;;;;;;8.75;2.40;;;;;;;22.32;36.58;95085.75;5065691;28;20040;-72
2022/04/26 10:21:29;;;;;;;12.70;1.85;;;;;;;22.35;35.58;95068.84;5065919;28;20469;-71
2022/04/26 10:23:55;;;;;;;13.90;2.45;;;;;;;22.45;35.56;95075.47;5065277;28;20498;-72
2022/04/26 10:28:50;;;;;;;7.50;1.77;;;;;;;22.40;36.15;95064.50;5065160;28;20406;-71
2022/04/26 10:31:17;;;;;;;9.35;2.05;;;;;;;22.35;35.63;95068.84;5066149;28;20028;-73
2022/04/26 10:33:42;;;;;;;9.27;2.22;;;;;;;22.27;39.11;95068.50;5064528;28;20555;-73
2022/04/26 10:36:20;;;;;;;10.88;2.10;;;;;;;22.33;35.90;95062.81;5065656;28;20040;-72
2022/04/26 10:39:08;;;;;;;7.93;1.95;;;;;;;22.46;35.36;95066.19;5065785;28;20522;-75
2022/04/26 10:41:37;;;;;;;4.97;1.70;;;;;;;22.48;33.92;95056.66;5063037;28;20036;-70
2022/04/26 10:44:19;;;;;;;5.75;1.95;;;;;;;22.52;33.20;95058.88;5066286;28;20032;-72
2022/04/26 10:46:58;;;;;;;9.50;1.70;;;;;;;22.51;33.77;95058.03;5065339;28;20060;-72
2022/04/26 10:49:33;;;;;;;6.82;2.13;;;;;;;22.55;33.26;95052.88;5064747;28;20037;-70
2022/04/26 10:52:23;;;;;;;10.45;1.65;;;;;;;22.57;34.13;95047.97;5066035;28;20025;-70
2022/04/26 10:54:51;;;;;;;7.28;1.95;;;;;;;22.62;34.20;95044.47;5064764;28;20048;-72
2022/04/26 10:57:16;;;;;;;6.55;1.55;;;;;;;22.81;34.35;95037.47;5065686;28;20777;-71
2022/04/26 10:59:42;;;;;;;6.10;1.67;;;;;;;23.02;33.16;95039.50;5064633;28;20038;-70
2022/04/26 11:02:13;;;;;;;9.05;2.67;;;;;;;23.18;31.57;95041.19;5065144;28;20032;-71
2022/04/26 11:04:39;;;;;;;9.07;2.17;;;;;;;23.24;31.05;95028.38;5065297;28;20029;-71
2022/04/26 11:07:14;;;;;;;6.28;1.38;;;;;;;23.17;29.51;95038.72;5064231;28;20028;-72
2022/04/26 11:09:53;;;;;;;6.35;2.08;;;;;;;23.21;29.15;95031.66;5065499;28;20027;-72
2022/04/26 11:12:32;;;;;;;5.70;1.45;;;;;;;23.17;28.64;95033.25;5064503;28;20031;-70
2022/04/26 11:15:08;;;;;;;8.50;1.52;;;;;;;23.28;28.07;95029.47;5065244;28;20027;-72
2022/04/26 11:17:34;;;;;;;6.28;1.00;;;;;;;23.42;29.25;95029.84;5065054;28;20017;-72
2022/04/26 11:20:19;;;;;;;10.27;1.65;;;;;;;23.49;27.92;95024.09;5064259;28;20207;-73
2022/04/26 11:22:51;;;;;;;7.85;1.88;;;;;;;23.49;27.52;95018.63;5065362;28;20096;-71
2022/04/26 11:28:06;;;;;;;8.57;1.48;;;;;;;23.78;29.65;95014.59;5065085;28;20048;-71
2022/04/26 11:30:42;;;;;;;7.25;1.30;;;;;;;23.94;28.49;95018.97;5047549;28;20055;-71
2022/04/26 11:33:24;;;;;;;7.30;1.55;;;;;;;24.03;28.37;95011.06;5064176;28;20025;-71
2022/04/26 11:36:00;;;;;;;10.63;1.52;;;;;;;24.04;27.42;95018.16;5065428;28;20142;-71
2022/04/26 11:38:27;;;;;;;8.32;1.75;;;;;;;23.99;28.08;95015.41;5064562;28;20380;-71
2022/04/26 11:40:58;;;;;;;8.20;1.65;;;;;;;24.12;28.43;95013.25;5064305;28;20032;-70
2022/04/26 11:43:27;;;;;;;7.32;1.85;;;;;;;24.20;28.43;95007.22;5064888;28;20028;-71
2022/04/26 11:45:55;;;;;;;6.70;2.22;;;;;;;24.22;27.77;95004.22;5065721;28;20029;-71
2022/04/26 11:48:21;;;;;;;6.63;1.73;;;;;;;24.31;26.57;95008.06;5069268;28;20095;-71
2022/04/26 11:50:50;;;;;;;9.63;2.00;;;;;;;24.39;27.77;95006.69;5067796;28;20081;-71
2022/04/26 11:53:20;;;;;;;8.93;1.65;;;;;;;24.26;27.37;95003.38;5069168;28;20510;-71
2022/04/26 11:55:47;;;;;;;7.97;2.40;;;;;;;23.99;27.19;94998.97;5067942;28;20090;-70
2022/04/26 11:58:23;;;;;;;2.83;1.08;;;;;;;24.19;27.35;94994.63;5050463;28;20032;-71
2022/04/26 12:01:04;;;;;;;4.20;1.27;;;;;;;24.29;26.78;94989.16;5068393;28;20458;-71
2022/04/26 12:03:52;;;;;;;9.23;1.80;;;;;;;24.38;26.55;94983.09;5068280;28;20044;-72
2022/04/26 12:06:17;;;;;;;7.05;1.80;;;;;;;24.41;26.29;94983.38;5051456;28;20029;-70
2022/04/26 12:09:11;;;;;;;7.53;1.35;;;;;;;24.54;28.42;94979.25;5067973;28;20069;-71
2022/04/26 12:11:38;;;;;;;12.40;1.67;;;;;;;24.83;27.35;94971.50;5065176;28;20113;-71
2022/04/26 12:14:14;;;;;;;10.65;1.83;;;;;;;25.03;25.27;94971.44;5068396;28;20070;-73
2022/04/26 12:16:55;;;;;;;6.03;1.20;;;;;;;25.18;24.78;94969.72;5067562;28;20083;-71
2022/04/26 12:19:22;;;;;;;7.95;1.52;;;;;;;25.18;24.71;94967.00;5051166;28;20040;-72
2022/04/26 12:21:47;;;;;;;4.65;1.42;;;;;;;25.25;25.17;94966.66;5067416;28;20067;-71
2022/04/26 12:24:16;;;;;;;6.63;1.30;;;;;;;25.28;24.87;94971.56;5068260;28;20052;-72
2022/04/26 12:26:55;;;;;;;6.78;1.70;;;;;;;25.35;24.66;94971.28;5068338;28;20025;-72
2022/04/26 12:29:22;;;;;;;4.00;1.42;;;;;;;25.39;23.45;94966.88;5067338;28;20032;-71
2022/04/26 12:31:48;;;;;;;9.10;1.63;;;;;;;25.45;24.27;94973.13;5068347;28;20598;-73
2022/04/26 12:34:21;;;;;;;6.03;1.48;;;;;;;25.47;23.49;94957.22;5067418;28;20016;-71
2022/04/26 12:36:57;;;;;;;7.95;1.38;;;;;;;25.65;24.58;94953.03;5068428;28;20039;-71
2022/04/26 12:39:23;;;;;;;5.80;1.60;;;;;;;25.86;24.75;94953.66;5067621;28;20036;-71
2022/04/26 12:41:49;;;;;;;12.00;1.67;;;;;;;26.10;25.18;94957.59;5067439;28;20148;-72
2022/04/26 12:44:15;;;;;;;8.27;1.27;;;;;;;26.19;22.85;94955.88;5068195;28;20020;-72
2022/04/26 12:52:43;;;;;;;11.38;1.58;;;;;;;26.18;23.43;94962.47;5068225;28;20035;-72
2022/04/26 12:55:09;;;;;;;14.05;2.15;;;;;;;26.01;27.06;94960.97;5066725;28;20028;-72
2022/04/26 12:57:48;;;;;;;16.58;1.77;;;;;;;25.72;27.41;94953.50;5048881;28;20043;-72
2022/04/26 13:00:14;;;;;;;11.10;1.60;;;;;;;25.64;29.15;94967.84;5066685;28;20676;-72
2022/04/26 13:02:39;;;;;;;12.85;2.08;;;;;;;25.45;28.88;94976.72;5067976;28;20024;-72
2022/04/26 13:05:05;;;;;;;11.68;1.40;;;;;;;24.89;29.69;94975.84;5067025;28;20032;-71
2022/04/26 13:07:31;;;;;;;3.00;0.98;;;;;;;24.40;30.23;94980.91;5049462;28;20017;-72
2022/04/26 13:09:58;;;;;;;8.63;1.42;;;;;;;24.03;31.49;95000.09;5067611;28;20495;-72
2022/04/26 13:12:24;;;;;;;18.42;2.28;;;;;;;23.60;31.88;95008.53;5066955;28;20025;-71
2022/04/26 13:14:50;;;;;;;19.27;1.55;;;;;;;23.21;32.48;95009.78;5068058;28;20020;-72
2022/04/26 13:17:16;;;;;;;10.65;1.70;;;;;;;23.13;31.95;95008.38;5066360;28;20119;-71
2022/04/26 13:19:41;;;;;;;8.98;1.30;;;;;;;22.87;32.45;95008.25;5068185;28;20028;-73
2022/04/26 13:22:07;;;;;;;4.57;0.95;;;;;;;22.82;32.45;95009.06;5066771;28;20017;-72
2022/04/26 13:24:32;;;;;;;11.88;1.33;;;;;;;22.82;31.88;95016.44;5067294;28;20090;-69
2022/04/26 13:26:57;;;;;;;5.93;1.17;;;;;;;22.54;31.93;95013.78;5067013;28;20021;-73
2022/04/26 13:29:23;;;;;;;20.42;1.65;;;;;;;22.51;32.05;95011.59;5066355;28;20031;-71
2022/04/26 13:31:48;;;;;;;5.03;1.10;;;;;;;22.33;32.32;95010.91;5067207;28;20025;-74
2022/04/26 13:34:14;;;;;;;7.88;0.88;;;;;;;22.30;32.15;95007.88;5066505;28;20025;-72
2022/04/26 13:36:39;;;;;;;5.03;1.33;;;;;;;22.08;32.86;95003.38;5067528;28;20028;-72
2022/04/26 13:39:04;;;;;;;3.72;0.98;;;;;;;22.17;32.83;94996.34;5066299;28;20036;-71
2022/04/26 13:41:31;;;;;;;12.68;1.38;;;;;;;21.80;33.17;94987.03;5067294;28;20049;-70
2022/04/26 13:43:56;;;;;;;4.55;1.13;;;;;;;21.55;33.31;94977.50;5066434;28;20467;-71
2022/04/26 13:46:23;;;;;;;3.70;0.80;;;;;;;21.34;33.68;94984.66;5066557;28;20086;-71
2022/04/26 13:48:49;;;;;;;2.65;0.73;;;;;;;21.02;34.63;94979.94;5066972;28;20025;-72
2022/04/26 13:51:15;;;;;;;2.78;0.93;;;;;;;20.84;34.01;94966.38;5065700;28;20027;-70
2022/04/26 13:53:41;;;;;;;3.15;0.80;;;;;;;20.69;34.71;94982.50;5067215;28;20021;-71
2022/04/26 13:56:09;;;;;;;2.63;0.70;;;;;;;20.58;34.65;94990.56;5065821;28;20021;-73
2022/04/26 13:58:34;;;;;;;1.73;0.60;;;;;;;20.45;35.38;94993.63;5066794;28;20514;-71
2022/04/26 14:01:00;;;;;;;3.15;0.75;;;;;;;20.38;35.80;95002.81;5066021;28;20025;-73
2022/04/26 14:03:27;;;;;;;4.47;0.82;;;;;;;20.34;35.82;95015.28;5066585;28;20078;-71
2022/04/26 14:05:54;;;;;;;2.28;0.88;;;;;;;20.29;35.46;95022.53;5066402;28;20035;-73
2022/04/26 14:08:19;;;;;;;2.38;0.70;;;;;;;20.22;35.74;95025.41;5065243;28;20410;-72
2022/04/26 14:10:45;;;;;;;2.28;0.80;;;;;;;20.11;35.94;95040.78;5067029;28;20491;-72
2022/04/26 14:13:10;;;;;;;5.03;1.00;;;;;;;20.11;35.98;95049.78;5065736;28;20035;-72
2022/04/26 14:21:47;;;;;;;2.55;0.80;;;;;;;20.05;38.27;95069.81;5065356;28;20040;-72
2022/04/26 14:24:01;;;;;;;7.60;1.20;;;;;;;19.86;39.59;95110.81;5066432;28;20170;-71
2022/04/26 14:26:26;;;;;;;5.25;1.25;;;;;;;19.80;39.89;95146.34;5065029;28;20032;-71
2022/04/26 14:28:52;;;;;;;13.65;1.52;;;;;;;19.68;40.55;95147.22;5066541;28;20455;-72
2022/04/26 14:31:17;;;;;;;24.20;2.65;;;;;;;19.48;41.49;95151.16;5065375;28;20024;-76
2022/04/26 14:33:42;;;;;;;11.75;1.67;;;;;;;19.25;42.56;95160.19;5065735;28;20101;-75
2022/04/26 14:36:08;;;;;;;8.30;1.30;;;;;;;19.09;43.36;95161.72;5065452;28;20504;-73
2022/04/26 14:38:33;;;;;;;8.07;1.63;;;;;;;18.46;44.89;95138.56;5064618;28;20029;-71
2022/04/26 14:40:59;;;;;;;4.18;1.30;;;;;;;18.38;45.81;95141.63;5065840;28;20028;-71
2022/04/26 14:43:25;;;;;;;2.38;1.05;;;;;;;18.12;43.90;95106.53;5065093;28;20034;-72
2022/04/26 14:45:53;;;;;;;8.50;1.50;;;;;;;18.08;43.62;95121.59;5066226;28;20025;-73
2022/04/26 14:48:19;;;;;;;2.17;0.90;;;;;;;18.07;43.53;95114.50;5064739;28;20056;-71
2022/04/26 14:50:44;;;;;;;2.50;0.90;;;;;;;17.88;43.77;95122.72;5066113;28;20039;-72
2022/04/26 14:53:09;;;;;;;1.42;0.73;;;;;;;17.96;44.39;95137.84;5065086;28;20028;-73
2022/04/26 14:55:36;;;;;;;6.32;1.10;;;;;;;17.90;45.93;95150.44;5065262;28;20024;-71
2022/04/26 14:58:02;;;;;;;5.70;1.17;;;;;;;17.92;47.03;95142.91;5065439;28;20442;-72
2022/04/26 15:00:27;;;;;;;4.07;1.58;;;;;;;17.72;48.36;95140.47;5064723;28;20017;-71
2022/04/26 15:02:52;;;;;;;3.88;1.30;;;;;;;17.58;48.36;95137.13;5064964;28;20113;-73
2022/04/26 15:05:18;;;;;;;5.20;1.30;;;;;;;17.62;48.30;95138.31;5064409;28;20025;-72
2022/04/26 15:10:29;;;;;;;4.75;1.23;;;;;;;17.50;49.26;95138.25;5065059;28;20125;-72
2022/04/26 15:18:22;;;;;;;4.68;1.27;;;;;;;17.71;49.61;95143.41;5064276;28;20098;-71
2022/04/26 15:20:52;;;;;;;6.90;1.10;;;;;;;17.72;50.32;95155.91;5064544;28;20020;-70
2022/04/26 15:23:20;;;;;;;5.05;1.38;;;;;;;17.42;51.14;95152.97;5064489;28;20051;-70
2022/04/26 15:25:50;;;;;;;3.10;1.10;;;;;;;17.33;51.23;95143.44;5064677;28;20110;-71
2022/04/26 15:28:16;;;;;;;3.38;1.40;;;;;;;17.42;50.61;95152.13;5046681;28;20098;-71
2022/04/26 15:30:42;;;;;;;2.92;0.90;;;;;;;17.56;50.11;95155.50;5064185;28;20439;-73
2022/04/26 15:33:08;;;;;;;4.05;1.00;;;;;;;17.64;50.35;95157.88;5047533;28;20480;-71
2022/04/26 15:35:33;;;;;;;2.55;1.40;;;;;;;17.73;50.15;95165.72;5063977;28;20105;-71
2022/04/26 15:37:59;;;;;;;2.33;1.13;;;;;;;17.65;50.13;95166.84;5064955;28;20028;-71
2022/04/26 15:40:24;;;;;;;6.68;1.08;;;;;;;17.59;50.62;95156.94;5064153;28;20028;-74
2022/04/26 15:42:50;;;;;;;4.00;1.10;;;;;;;17.52;50.29;95163.25;5065202;28;20047;-71
2022/04/26 15:45:15;;;;;;;5.40;1.30;;;;;;;17.47;50.65;95163.13;5064512;28;20021;-71
2022/04/26 15:47:41;;;;;;;3.53;1.00;;;;;;;17.45;50.74;95164.38;5064105;28;20063;-71
2022/04/26 15:50:06;;;;;;;6.00;1.20;;;;;;;17.45;50.48;95157.09;5064866;28;20090;-70